createdAt,value
2023-03-12T00:02:07.917Z,99806.00
2023-03-12T00:04:35.797Z,99804.00
2023-03-12T00:07:05.834Z,99803.00
2023-03-12T00:09:36.298Z,99818.00
2023-03-12T00:12:03.664Z,99812.00
2023-03-12T00:14:30.965Z,99799.00
2023-03-12T00:16:58.206Z,99812.00
2023-03-12T00:19:25.527Z,99811.00
2023-03-12T00:21:52.820Z,99819.00
2023-03-12T00:24:20.731Z,99807.00
2023-03-12T00:26:48.564Z,99812.00
2023-03-12T00:29:15.842Z,99807.00
2023-03-12T00:31:43.217Z,99821.00
2023-03-12T00:34:10.612Z,99813.00
2023-03-12T00:36:40.562Z,99812.00
2023-03-12T00:39:08.082Z,99805.00
2023-03-12T00:41:36.033Z,99813.00
2023-03-12T00:44:03.338Z,99804.00
2023-03-12T00:46:30.601Z,99820.00
2023-03-12T00:48:57.868Z,99820.00
2023-03-12T00:51:25.152Z,99823.00
2023-03-12T00:53:52.518Z,99826.00
2023-03-12T00:56:19.818Z,99826.00
2023-03-12T00:58:47.749Z,99812.00
2023-03-12T01:01:15.179Z,99820.00
2023-03-12T01:03:42.582Z,99811.00
2023-03-12T01:06:09.866Z,99811.00
2023-03-12T01:08:37.251Z,99822.00
2023-03-12T01:11:05.142Z,99817.00
2023-03-12T01:13:32.527Z,99813.00
2023-03-12T01:16:00.504Z,99813.00
2023-03-12T01:18:27.793Z,99817.00
2023-03-12T01:20:55.278Z,99818.00
2023-03-12T01:23:22.598Z,99813.00
2023-03-12T01:25:51.215Z,99824.00
2023-03-12T01:28:18.779Z,99821.00
2023-03-12T01:30:46.057Z,99821.00
2023-03-12T01:33:14.077Z,99829.00
2023-03-12T01:35:42.466Z,99823.00
2023-03-12T01:38:14.057Z,99828.00
2023-03-12T01:40:42.842Z,99825.00
2023-03-12T01:43:28.513Z,99823.00
2023-03-12T01:46:06.087Z,99830.00
2023-03-12T01:48:37.829Z,99828.00
2023-03-12T01:51:05.920Z,99822.00
2023-03-12T01:53:34.272Z,99825.00
2023-03-12T01:56:01.755Z,99827.00
2023-03-12T01:58:31.298Z,99827.00
2023-03-12T02:00:59.124Z,99828.00
2023-03-12T02:03:27.351Z,99826.00
2023-03-12T02:06:00.067Z,99822.00
2023-03-12T02:08:28.145Z,99838.00
2023-03-12T02:10:55.475Z,99831.00
2023-03-12T02:13:22.769Z,99829.00
2023-03-12T02:15:50.113Z,99824.00
2023-03-12T02:18:18.916Z,99829.00
2023-03-12T02:20:52.558Z,99830.00
2023-03-12T02:23:27.428Z,99829.00
2023-03-12T02:25:57.103Z,99828.00
2023-03-12T02:28:27.958Z,99838.00
2023-03-12T02:30:59.604Z,99827.00
2023-03-12T02:33:27.465Z,99833.00
2023-03-12T02:35:55.923Z,99826.00
2023-03-12T02:38:35.717Z,99840.00
2023-03-12T02:41:09.730Z,99838.00
2023-03-12T02:43:37.351Z,99840.00
2023-03-12T02:46:05.111Z,99841.00
2023-03-12T02:48:32.484Z,99844.00
2023-03-12T02:50:59.817Z,99848.00
2023-03-12T02:53:27.071Z,99848.00
2023-03-12T02:55:54.995Z,99854.00
2023-03-12T02:58:23.079Z,99846.00
2023-03-12T03:00:50.354Z,99860.00
2023-03-12T03:03:17.601Z,99863.00
2023-03-12T03:05:44.923Z,99863.00
2023-03-12T03:08:12.335Z,99860.00
2023-03-12T03:10:39.741Z,99854.00
2023-03-12T03:13:07.341Z,99857.00
2023-03-12T03:15:35.562Z,99859.00
2023-03-12T03:18:03.258Z,99859.00
2023-03-12T03:20:31.221Z,99872.00
2023-03-12T03:22:58.548Z,99882.00
2023-03-12T03:25:25.865Z,99879.00
2023-03-12T03:27:53.126Z,99881.00
2023-03-12T03:30:20.960Z,99876.00
2023-03-12T03:32:49.936Z,99887.00
2023-03-12T03:35:17.450Z,99880.00
2023-03-12T03:37:44.749Z,99882.00
2023-03-12T03:40:12.868Z,99884.00
2023-03-12T03:42:40.686Z,99890.00
2023-03-12T03:45:09.257Z,99888.00
2023-03-12T03:47:36.815Z,99892.00
2023-03-12T03:50:06.454Z,99892.00
2023-03-12T03:52:33.813Z,99888.00
2023-03-12T03:55:01.099Z,99891.00
2023-03-12T03:57:28.762Z,99887.00
2023-03-12T03:59:58.039Z,99899.00
2023-03-12T04:02:25.853Z,99909.00
2023-03-12T04:04:53.188Z,99895.00
2023-03-12T04:07:21.628Z,99894.00
2023-03-12T04:09:49.007Z,99896.00
2023-03-12T04:12:16.277Z,99902.00
2023-03-12T04:14:43.549Z,99905.00
2023-03-12T04:17:10.818Z,99907.00
2023-03-12T04:19:38.134Z,99908.00
2023-03-12T04:22:05.607Z,99905.00
2023-03-12T04:24:33.519Z,99905.00
2023-03-12T04:27:00.800Z,99900.00
2023-03-12T04:29:28.185Z,99904.00
2023-03-12T04:31:55.443Z,99891.00
2023-03-12T04:34:22.692Z,99905.00
2023-03-12T04:36:50.137Z,99895.00
2023-03-12T04:39:18.826Z,99901.00
2023-03-12T04:41:47.214Z,99899.00
2023-03-12T04:44:14.714Z,99911.00
2023-03-12T04:46:42.074Z,99905.00
2023-03-12T04:49:09.458Z,99910.00
2023-03-12T04:51:36.733Z,99909.00
2023-03-12T04:54:04.226Z,99911.00
2023-03-12T04:56:31.571Z,99916.00
2023-03-12T04:58:59.502Z,99907.00
2023-03-12T05:01:29.070Z,99916.00
2023-03-12T05:03:56.662Z,99919.00
2023-03-12T05:06:25.065Z,99921.00
2023-03-12T05:08:52.882Z,99928.00
2023-03-12T05:11:20.991Z,99913.00
2023-03-12T05:13:48.870Z,99916.00
2023-03-12T05:16:17.463Z,99925.00
2023-03-12T05:18:45.169Z,99916.00
2023-03-12T05:21:14.469Z,99922.00
2023-03-12T05:23:42.474Z,99920.00
2023-03-12T05:26:17.708Z,99928.00
2023-03-12T05:28:45.349Z,99921.00
2023-03-12T05:31:14.187Z,99925.00
2023-03-12T05:33:42.843Z,99916.00
2023-03-12T05:36:10.786Z,99919.00
2023-03-12T05:38:38.812Z,99925.00
2023-03-12T05:41:06.573Z,99921.00
2023-03-12T05:43:34.100Z,99922.00
2023-03-12T05:46:03.349Z,99924.00
2023-03-12T05:48:31.265Z,99928.00
2023-03-12T05:50:59.194Z,99932.00
2023-03-12T05:53:26.773Z,99931.00
2023-03-12T05:55:54.070Z,99932.00
2023-03-12T05:58:21.381Z,99925.00
2023-03-12T06:00:48.636Z,99921.00
2023-03-12T06:03:15.895Z,99930.00
2023-03-12T06:05:45.287Z,99942.00
2023-03-12T06:08:13.376Z,99943.00
2023-03-12T06:10:40.890Z,99931.00
2023-03-12T06:13:08.480Z,99930.00
2023-03-12T06:15:35.748Z,99932.00
2023-03-12T06:18:03.069Z,99924.00
2023-03-12T06:20:30.564Z,99925.00
2023-03-12T06:22:57.816Z,99921.00
2023-03-12T06:25:25.743Z,99933.00
2023-03-12T06:27:52.985Z,99935.00
2023-03-12T06:30:20.307Z,99927.00
2023-03-12T06:32:47.547Z,99943.00
2023-03-12T06:35:15.095Z,99939.00
2023-03-12T06:37:42.407Z,99928.00
2023-03-12T06:40:12.300Z,99938.00
2023-03-12T06:42:40.362Z,99938.00
2023-03-12T06:45:08.627Z,99939.00
2023-03-12T06:47:35.910Z,99941.00
2023-03-12T06:50:03.523Z,99942.00
2023-03-12T06:52:30.813Z,99940.00
2023-03-12T06:54:58.114Z,99940.00
2023-03-12T06:57:25.414Z,99935.00
2023-03-12T06:59:53.395Z,99948.00
2023-03-12T07:02:20.778Z,99945.00
2023-03-12T07:04:48.153Z,99953.00
2023-03-12T07:07:16.376Z,99942.00
2023-03-12T07:09:43.715Z,99942.00
2023-03-12T07:12:10.990Z,99939.00
2023-03-12T07:14:38.285Z,99945.00
2023-03-12T07:17:06.411Z,99942.00
2023-03-12T07:19:33.636Z,99937.00
2023-03-12T07:22:01.142Z,99935.00
2023-03-12T07:24:28.380Z,99939.00
2023-03-12T07:26:55.654Z,99944.00
2023-03-12T07:29:22.892Z,99941.00
2023-03-12T07:31:50.137Z,99945.00
2023-03-12T07:34:18.167Z,99958.00
2023-03-12T07:36:45.666Z,99947.00
2023-03-12T07:39:12.978Z,99949.00
2023-03-12T07:41:40.364Z,99945.00
2023-03-12T07:44:08.708Z,99949.00
2023-03-12T07:46:36.097Z,99949.00
2023-03-12T07:49:03.746Z,99942.00
2023-03-12T07:51:31.707Z,99954.00
2023-03-12T07:53:59.016Z,99950.00
2023-03-12T07:56:26.316Z,99954.00
2023-03-12T07:58:54.142Z,99957.00
2023-03-12T08:01:21.845Z,99948.00
2023-03-12T08:03:50.106Z,99948.00
2023-03-12T08:06:17.383Z,99951.00
2023-03-12T08:08:45.525Z,99949.00
2023-03-12T08:11:12.825Z,99947.00
2023-03-12T08:13:40.105Z,99952.00
2023-03-12T08:16:09.459Z,99958.00
2023-03-12T08:18:36.922Z,99954.00
2023-03-12T08:21:04.532Z,99959.00
2023-03-12T08:23:31.829Z,99961.00
2023-03-12T08:25:59.720Z,99960.00
2023-03-12T08:28:27.190Z,99956.00
2023-03-12T08:30:58.361Z,99959.00
2023-03-12T08:33:25.887Z,99961.00
2023-03-12T08:35:53.409Z,99952.00
2023-03-12T08:38:21.192Z,99955.00
2023-03-12T08:40:56.179Z,99961.00
2023-03-12T08:43:24.296Z,99957.00
2023-03-12T08:45:54.557Z,99958.00
2023-03-12T08:48:21.948Z,99944.00
2023-03-12T08:50:49.461Z,99952.00
2023-03-12T08:53:17.171Z,99959.00
2023-03-12T08:55:45.063Z,99957.00
2023-03-12T08:58:12.395Z,99957.00
2023-03-12T09:00:40.288Z,99946.00
2023-03-12T09:03:11.673Z,99955.00
2023-03-12T09:05:38.974Z,99967.00
2023-03-12T09:08:06.718Z,99962.00
2023-03-12T09:10:34.075Z,99958.00
2023-03-12T09:13:01.572Z,99963.00
2023-03-12T09:15:29.036Z,99960.00
2023-03-12T09:17:57.050Z,99949.00
2023-03-12T09:20:25.322Z,99956.00
2023-03-12T09:22:52.807Z,99949.00
2023-03-12T09:25:22.568Z,99952.00
2023-03-12T09:27:49.880Z,99946.00
2023-03-12T09:30:19.392Z,99951.00
2023-03-12T09:32:46.923Z,99947.00
2023-03-12T09:35:16.106Z,99933.00
2023-03-12T09:37:43.480Z,99941.00
2023-03-12T09:40:19.278Z,99938.00
2023-03-12T09:42:50.300Z,99938.00
2023-03-12T09:45:21.376Z,99946.00
2023-03-12T09:47:51.363Z,99939.00
2023-03-12T09:50:26.048Z,99944.00
2023-03-12T09:52:59.619Z,99932.00
2023-03-12T09:55:32.552Z,99943.00
2023-03-12T09:57:59.725Z,99941.00
2023-03-12T10:00:30.784Z,99936.00
2023-03-12T10:03:29.054Z,99926.00
2023-03-12T10:06:08.688Z,99936.00
2023-03-12T10:08:48.746Z,99930.00
2023-03-12T10:11:27.419Z,99923.00
2023-03-12T10:14:06.298Z,99928.00
2023-03-12T10:16:52.334Z,99919.00
2023-03-12T10:19:41.346Z,99914.00
2023-03-12T10:22:22.446Z,99912.00
2023-03-12T10:25:00.555Z,99905.00
2023-03-12T10:27:34.116Z,99910.00
2023-03-12T10:30:02.747Z,99911.00
2023-03-12T10:32:38.875Z,99905.00
2023-03-12T10:35:15.581Z,99909.00
2023-03-12T10:37:46.647Z,99908.00
2023-03-12T10:40:16.005Z,99905.00
2023-03-12T10:42:43.633Z,99907.00
2023-03-12T10:45:32.152Z,99906.00
2023-03-12T10:48:03.156Z,99904.00
2023-03-12T10:50:31.951Z,99903.00
2023-03-12T10:53:22.187Z,99888.00
2023-03-12T10:56:01.393Z,99902.00
2023-03-12T10:58:33.860Z,99891.00
2023-03-12T11:01:02.958Z,99892.00
2023-03-12T11:03:30.744Z,99893.00
2023-03-12T11:06:00.509Z,99898.00
2023-03-12T11:08:30.149Z,99885.00
2023-03-12T11:10:59.205Z,99890.00
2023-03-12T11:13:29.464Z,99890.00
2023-03-12T11:15:58.369Z,99877.00
2023-03-12T11:18:29.803Z,99874.00
2023-03-12T11:21:11.346Z,99870.00
2023-03-12T11:23:43.167Z,99868.00
2023-03-12T11:26:15.675Z,99869.00
2023-03-12T11:28:46.170Z,99876.00
2023-03-12T11:31:21.942Z,99868.00
2023-03-12T11:33:50.637Z,99861.00
2023-03-12T11:36:37.356Z,99860.00
2023-03-12T11:39:16.367Z,99859.00
2023-03-12T11:42:00.498Z,99852.00
2023-03-12T11:44:35.463Z,99848.00
2023-03-12T11:47:20.033Z,99836.00
2023-03-12T11:50:03.263Z,99823.00
2023-03-12T11:52:40.028Z,99819.00
2023-03-12T11:55:37.121Z,99807.00
2023-03-12T11:58:24.255Z,99806.00
2023-03-12T12:00:57.455Z,99798.00
2023-03-12T12:03:42.493Z,99797.00
2023-03-12T12:06:17.650Z,99772.00
2023-03-12T12:08:59.712Z,99768.00
2023-03-12T12:11:37.601Z,99771.00
2023-03-12T12:14:14.394Z,99769.00
2023-03-12T12:17:02.430Z,99780.00
2023-03-12T12:19:54.525Z,99764.00
2023-03-12T12:22:33.611Z,99757.00
2023-03-12T12:25:30.602Z,99748.00
2023-03-12T12:28:10.527Z,99747.00
2023-03-12T12:30:54.551Z,99735.00
2023-03-12T12:33:39.753Z,99726.00
2023-03-12T12:36:09.982Z,99732.00
2023-03-12T12:38:42.192Z,99732.00
2023-03-12T12:41:14.673Z,99728.00
2023-03-12T12:43:46.964Z,99732.00
2023-03-12T12:46:17.721Z,99723.00
2023-03-12T12:48:48.494Z,99723.00
2023-03-12T12:51:19.288Z,99714.00
2023-03-12T12:53:53.557Z,99711.00
2023-03-12T12:56:25.081Z,99708.00
2023-03-12T12:59:27.517Z,99712.00
2023-03-12T13:01:56.928Z,99708.00
2023-03-12T13:04:26.752Z,99714.00
2023-03-12T13:07:00.239Z,99709.00
2023-03-12T13:09:40.127Z,99708.00
2023-03-12T13:12:13.076Z,99701.00
2023-03-12T13:14:43.048Z,99701.00
2023-03-12T13:17:23.647Z,99701.00
2023-03-12T13:20:00.997Z,99697.00
2023-03-12T13:22:55.260Z,99700.00
2023-03-12T13:25:30.528Z,99695.00
2023-03-12T13:27:59.898Z,99694.00
2023-03-12T13:30:52.338Z,99692.00
2023-03-12T13:33:35.653Z,99687.00
2023-03-12T13:36:06.414Z,99692.00
2023-03-12T13:38:46.132Z,99690.00
2023-03-12T13:41:32.183Z,99686.00
2023-03-12T13:43:59.743Z,99696.00
2023-03-12T13:46:43.139Z,99686.00
2023-03-12T13:49:19.542Z,99691.00
2023-03-12T13:51:58.556Z,99687.00
2023-03-12T13:54:31.470Z,99687.00
2023-03-12T13:57:01.962Z,99688.00
2023-03-12T13:59:30.992Z,99688.00
2023-03-12T14:02:04.521Z,99688.00
2023-03-12T14:04:40.408Z,99675.00
2023-03-12T14:07:28.836Z,99684.00
2023-03-12T14:10:09.141Z,99678.00
2023-03-12T14:12:46.136Z,99673.00
2023-03-12T14:15:26.518Z,99685.00
2023-03-12T14:17:58.158Z,99682.00
2023-03-12T14:20:26.684Z,99673.00
2023-03-12T14:22:58.730Z,99672.00
2023-03-12T14:25:34.061Z,99656.00
2023-03-12T14:28:02.150Z,99663.00
2023-03-12T14:30:41.149Z,99666.00
2023-03-12T14:33:13.306Z,99660.00
2023-03-12T14:35:44.874Z,99655.00
2023-03-12T14:38:17.231Z,99643.00
2023-03-12T14:40:48.181Z,99647.00
2023-03-12T14:43:23.936Z,99643.00
2023-03-12T14:45:54.339Z,99641.00
2023-03-12T14:48:23.459Z,99649.00
2023-03-12T14:50:51.090Z,99637.00
2023-03-12T14:53:23.788Z,99650.00
2023-03-12T14:56:12.142Z,99654.00
2023-03-12T14:58:44.670Z,99647.00
2023-03-12T15:01:14.920Z,99653.00
2023-03-12T15:03:46.187Z,99645.00
2023-03-12T15:06:18.128Z,99652.00
2023-03-12T15:08:45.685Z,99646.00
2023-03-12T15:11:13.315Z,99640.00
2023-03-12T15:13:40.712Z,99643.00
2023-03-12T15:16:08.827Z,99637.00
2023-03-12T15:18:37.359Z,99630.00
2023-03-12T15:21:06.904Z,99633.00
2023-03-12T15:23:36.326Z,99619.00
2023-03-12T15:26:12.263Z,99605.00
2023-03-12T15:28:40.172Z,99595.00
2023-03-12T15:31:11.806Z,99594.00
2023-03-12T15:33:40.058Z,99590.00
2023-03-12T15:36:28.911Z,99579.00
2023-03-12T15:39:00.425Z,99584.00
2023-03-12T15:41:32.633Z,99566.00
2023-03-12T15:44:00.799Z,99577.00
2023-03-12T15:46:28.851Z,99581.00
2023-03-12T15:48:57.748Z,99591.00
2023-03-12T15:51:34.305Z,99575.00
2023-03-12T15:54:04.056Z,99572.00
2023-03-12T15:56:33.949Z,99580.00
2023-03-12T15:59:19.786Z,99569.00
2023-03-12T16:01:48.746Z,99573.00
2023-03-12T16:04:16.406Z,99566.00
2023-03-12T16:06:47.526Z,99565.00
2023-03-12T16:09:18.105Z,99553.00
2023-03-12T16:11:45.699Z,99549.00
2023-03-12T16:14:17.155Z,99544.00
2023-03-12T16:16:44.509Z,99541.00
2023-03-12T16:19:13.791Z,99537.00
2023-03-12T16:21:41.560Z,99544.00
2023-03-12T16:24:10.051Z,99547.00
2023-03-12T16:26:43.702Z,99541.00
2023-03-12T16:29:14.461Z,99546.00
2023-03-12T16:31:41.867Z,99554.00
2023-03-12T16:34:10.631Z,99560.00
2023-03-12T16:36:37.995Z,99548.00
2023-03-12T16:39:05.444Z,99541.00
2023-03-12T16:41:33.525Z,99537.00
2023-03-12T16:44:00.938Z,99548.00
2023-03-12T16:46:31.292Z,99533.00
2023-03-12T16:48:59.630Z,99526.00
2023-03-12T16:51:28.054Z,99536.00
2023-03-12T16:54:09.217Z,99553.00
2023-03-12T16:56:43.146Z,99529.00
2023-03-12T16:59:24.983Z,99521.00
2023-03-12T17:01:52.661Z,99535.00
2023-03-12T17:04:20.066Z,99529.00
2023-03-12T17:06:47.447Z,99523.00
2023-03-12T17:09:14.712Z,99523.00
2023-03-12T17:11:42.895Z,99522.00
2023-03-12T17:14:17.113Z,99525.00
2023-03-12T17:16:44.964Z,99537.00
2023-03-12T17:19:12.280Z,99533.00
2023-03-12T17:21:40.081Z,99540.00
2023-03-12T17:24:07.927Z,99549.00
2023-03-12T17:26:35.284Z,99551.00
2023-03-12T17:29:03.181Z,99557.00
2023-03-12T17:31:30.466Z,99554.00
2023-03-12T17:33:57.808Z,99551.00
2023-03-12T17:36:25.244Z,99546.00
2023-03-12T17:38:52.531Z,99545.00
2023-03-12T17:41:26.415Z,99549.00
2023-03-12T17:43:54.558Z,99540.00
2023-03-12T17:46:22.767Z,99546.00
2023-03-12T17:48:50.290Z,99537.00
2023-03-12T17:51:17.721Z,99554.00
2023-03-12T17:53:45.950Z,99557.00
2023-03-12T17:56:17.166Z,99574.00
2023-03-12T17:58:44.676Z,99555.00
2023-03-12T18:01:13.457Z,99554.00
2023-03-12T18:03:43.250Z,99546.00
2023-03-12T18:06:10.694Z,99550.00
2023-03-12T18:08:38.034Z,99539.00
2023-03-12T18:11:05.574Z,99540.00
2023-03-12T18:13:33.093Z,99549.00
2023-03-12T18:16:00.465Z,99540.00
2023-03-12T18:18:28.537Z,99544.00
2023-03-12T18:20:56.615Z,99540.00
2023-03-12T18:23:24.847Z,99551.00
2023-03-12T18:25:52.154Z,99557.00
2023-03-12T18:28:20.153Z,99543.00
2023-03-12T18:30:47.720Z,99554.00
2023-03-12T18:33:15.200Z,99554.00
2023-03-12T18:35:44.050Z,99551.00
2023-03-12T18:38:12.168Z,99550.00
2023-03-12T18:40:39.682Z,99549.00
2023-03-12T18:43:07.028Z,99549.00
2023-03-12T18:45:34.417Z,99543.00
2023-03-12T18:48:01.730Z,99536.00
2023-03-12T18:50:29.049Z,99547.00
2023-03-12T18:52:56.332Z,99552.00
2023-03-12T18:55:24.339Z,99557.00
2023-03-12T18:57:51.728Z,99566.00
2023-03-12T19:00:19.650Z,99565.00
2023-03-12T19:02:48.223Z,99571.00
2023-03-12T19:05:16.368Z,99563.00
2023-03-12T19:07:43.918Z,99574.00
2023-03-12T19:10:12.580Z,99573.00
2023-03-12T19:12:51.326Z,99573.00
2023-03-12T19:15:19.172Z,99564.00
2023-03-12T19:17:46.472Z,99567.00
2023-03-12T19:20:13.782Z,99572.00
2023-03-12T19:22:41.217Z,99561.00
2023-03-12T19:25:13.902Z,99573.00
2023-03-12T19:27:42.665Z,99574.00
2023-03-12T19:30:15.978Z,99549.00
2023-03-12T19:32:44.687Z,99566.00
2023-03-12T19:35:14.169Z,99574.00
2023-03-12T19:37:41.990Z,99572.00
2023-03-12T19:40:11.374Z,99551.00
2023-03-12T19:42:39.559Z,99563.00
2023-03-12T19:45:09.512Z,99572.00
2023-03-12T19:47:36.859Z,99577.00
2023-03-12T19:50:04.730Z,99572.00
2023-03-12T19:52:32.265Z,99570.00
2023-03-12T19:55:04.595Z,99576.00
2023-03-12T19:57:33.077Z,99573.00
2023-03-12T20:00:00.408Z,99579.00
2023-03-12T20:02:28.926Z,99588.00
2023-03-12T20:05:00.584Z,99591.00
2023-03-12T20:07:31.151Z,99583.00
2023-03-12T20:10:01.462Z,99579.00
2023-03-12T20:12:41.739Z,99585.00
2023-03-12T20:15:12.562Z,99593.00
2023-03-12T20:21:44.823Z,99589.00
2023-03-12T20:30:25.442Z,99577.00
2023-03-12T20:35:53.949Z,99579.00
2023-03-12T20:38:24.787Z,99581.00
2023-03-12T20:41:00.439Z,99569.00
2023-03-12T20:43:28.021Z,99586.00
2023-03-12T20:46:04.408Z,99576.00
2023-03-12T20:48:38.647Z,99586.00
2023-03-12T20:51:10.372Z,99570.00
2023-03-12T20:57:40.335Z,99576.00
2023-03-12T21:00:09.360Z,99577.00
2023-03-12T21:02:56.694Z,99584.00
2023-03-12T21:05:37.876Z,99586.00
2023-03-12T21:08:08.657Z,99581.00
2023-03-12T21:10:56.774Z,99585.00
2023-03-12T21:13:26.013Z,99587.00
2023-03-12T21:15:53.694Z,99581.00
2023-03-12T21:18:31.847Z,99578.00
2023-03-12T21:23:51.661Z,99587.00
2023-03-12T21:26:21.650Z,99581.00
2023-03-12T21:29:35.342Z,99565.00
2023-03-12T21:32:35.262Z,99562.00
2023-03-12T21:35:06.058Z,99563.00
2023-03-12T21:37:49.184Z,99553.00
2023-03-12T21:40:17.087Z,99561.00
2023-03-12T21:42:53.827Z,99562.00
2023-03-12T21:45:24.489Z,99560.00
2023-03-12T21:47:54.961Z,99562.00
2023-03-12T21:50:55.607Z,99551.00
2023-03-12T22:00:38.794Z,99542.00
2023-03-12T22:03:06.574Z,99536.00
2023-03-12T22:08:16.934Z,99549.00
2023-03-12T22:10:52.456Z,99540.00
2023-03-12T22:13:29.463Z,99536.00
2023-03-12T22:16:16.521Z,99533.00
2023-03-12T22:18:47.858Z,99541.00
2023-03-12T22:21:22.727Z,99539.00
2023-03-12T22:24:06.358Z,99519.00
2023-03-12T22:27:00.810Z,99514.00
2023-03-12T22:29:47.709Z,99517.00
2023-03-12T22:32:43.849Z,99508.00
2023-03-12T22:35:16.671Z,99515.00
2023-03-12T22:37:56.891Z,99513.00
2023-03-12T22:44:14.540Z,99506.00
2023-03-12T22:47:03.384Z,99500.00
2023-03-12T22:52:46.593Z,99514.00
2023-03-12T22:55:28.702Z,99509.00
2023-03-12T22:57:55.936Z,99513.00
2023-03-12T23:00:25.970Z,99520.00
2023-03-12T23:02:53.490Z,99523.00
2023-03-12T23:05:20.858Z,99518.00
2023-03-12T23:07:48.322Z,99512.00
2023-03-12T23:10:15.795Z,99518.00
2023-03-12T23:12:43.106Z,99512.00
2023-03-12T23:15:11.031Z,99513.00
2023-03-12T23:17:39.254Z,99506.00
2023-03-12T23:20:08.900Z,99505.00
2023-03-12T23:22:36.635Z,99509.00
2023-03-12T23:25:04.423Z,99515.00
2023-03-12T23:27:32.205Z,99504.00
2023-03-12T23:29:59.502Z,99508.00
2023-03-12T23:32:26.865Z,99510.00
2023-03-12T23:34:54.774Z,99502.00
2023-03-12T23:37:22.122Z,99502.00
2023-03-12T23:39:54.901Z,99504.00
2023-03-12T23:42:22.702Z,99503.00
2023-03-12T23:44:50.021Z,99499.00
2023-03-12T23:47:17.363Z,99499.00
2023-03-12T23:49:44.615Z,99484.00
2023-03-12T23:52:12.624Z,99492.00
2023-03-12T23:54:39.887Z,99488.00
2023-03-12T23:57:07.232Z,99501.00
2023-03-12T23:59:34.496Z,99494.00
